sensor_id;sensor_type;location;lat;lon;timestamp;pressure;altitude;pressure_sealevel;temperature;humidity
63194;BME280;49289;51.670;5.624;2024-03-07T00:00:33;102722.84;;;14.20;53.78
63194;BME280;49289;51.670;5.624;2024-03-07T00:02:20;102700.57;;;14.11;53.52
63194;BME280;49289;51.670;5.624;2024-03-07T00:04:07;102722.38;;;14.27;53.43
63194;BME280;49289;51.670;5.624;2024-03-07T00:05:54;102723.25;;;14.15;53.60
63194;BME280;49289;51.670;5.624;2024-03-07T00:07:41;102722.64;;;14.10;53.75
63194;BME280;49289;51.670;5.624;2024-03-07T00:09:28;102697.52;;;13.91;53.70
63194;BME280;49289;51.670;5.624;2024-03-07T00:11:15;102718.36;;;13.93;53.79
63194;BME280;49289;51.670;5.624;2024-03-07T00:13:02;102722.52;;;14.02;53.57
63194;BME280;49289;51.670;5.624;2024-03-07T00:14:50;102703.27;;;13.75;53.79
63194;BME280;49289;51.670;5.624;2024-03-07T00:16:39;102702.91;;;13.69;53.99
63194;BME280;49289;51.670;5.624;2024-03-07T00:18:26;102721.50;;;13.81;53.88
63194;BME280;49289;51.670;5.624;2024-03-07T00:20:14;102704.55;;;13.53;54.15
63194;BME280;49289;51.670;5.624;2024-03-07T00:22:01;102701.23;;;13.65;53.65
63194;BME280;49289;51.670;5.624;2024-03-07T00:23:48;102727.17;;;13.65;54.01
63194;BME280;49289;51.670;5.624;2024-03-07T00:25:35;102725.96;;;13.72;53.89
63194;BME280;49289;51.670;5.624;2024-03-07T00:27:22;102702.94;;;13.58;54.10
63194;BME280;49289;51.670;5.624;2024-03-07T00:29:09;102725.77;;;13.67;54.12
63194;BME280;49289;51.670;5.624;2024-03-07T00:30:57;102705.11;;;13.54;54.30
63194;BME280;49289;51.670;5.624;2024-03-07T00:32:46;102702.13;;;13.47;54.47
63194;BME280;49289;51.670;5.624;2024-03-07T00:34:33;102720.97;;;13.69;54.37
63194;BME280;49289;51.670;5.624;2024-03-07T00:36:20;102700.70;;;13.52;54.34
63194;BME280;49289;51.670;5.624;2024-03-07T00:38:07;102719.74;;;13.61;54.21
63194;BME280;49289;51.670;5.624;2024-03-07T00:39:54;102722.45;;;13.51;54.40
63194;BME280;49289;51.670;5.624;2024-03-07T00:41:41;102704.37;;;13.35;54.37
63194;BME280;49289;51.670;5.624;2024-03-07T00:43:30;102704.78;;;13.39;54.24
63194;BME280;49289;51.670;5.624;2024-03-07T00:45:18;102707.90;;;13.31;54.26
63194;BME280;49289;51.670;5.624;2024-03-07T00:47:06;102727.55;;;13.27;54.54
63194;BME280;49289;51.670;5.624;2024-03-07T00:48:52;102718.84;;;13.15;54.67
63194;BME280;49289;51.670;5.624;2024-03-07T00:50:41;102702.47;;;13.01;54.72
63194;BME280;49289;51.670;5.624;2024-03-07T00:52:29;102703.72;;;13.06;54.35
63194;BME280;49289;51.670;5.624;2024-03-07T00:54:16;102705.39;;;12.94;54.54
63194;BME280;49289;51.670;5.624;2024-03-07T00:56:03;102722.97;;;13.08;54.38
63194;BME280;49289;51.670;5.624;2024-03-07T00:57:50;102703.98;;;12.85;54.68
63194;BME280;49289;51.670;5.624;2024-03-07T00:59:37;102725.46;;;12.97;54.60
63194;BME280;49289;51.670;5.624;2024-03-07T01:01:25;102720.38;;;12.74;54.87
63194;BME280;49289;51.670;5.624;2024-03-07T01:03:12;102716.75;;;12.73;54.85
63194;BME280;49289;51.670;5.624;2024-03-07T01:04:59;102718.27;;;12.74;54.48
63194;BME280;49289;51.670;5.624;2024-03-07T01:06:46;102716.29;;;12.74;54.62
63194;BME280;49289;51.670;5.624;2024-03-07T01:08:34;102693.20;;;12.54;54.54
63194;BME280;49289;51.670;5.624;2024-03-07T01:10:22;102709.53;;;12.55;55.01
63194;BME280;49289;51.670;5.624;2024-03-07T01:12:09;102688.99;;;12.49;55.00
63194;BME280;49289;51.670;5.624;2024-03-07T01:13:56;102715.61;;;12.60;54.78
63194;BME280;49289;51.670;5.624;2024-03-07T01:15:44;102715.27;;;12.62;54.68
63194;BME280;49289;51.670;5.624;2024-03-07T01:17:31;102691.10;;;12.49;54.46
63194;BME280;49289;51.670;5.624;2024-03-07T01:19:18;102692.97;;;12.51;54.11
63194;BME280;49289;51.670;5.624;2024-03-07T01:21:05;102686.91;;;12.53;54.19
63194;BME280;49289;51.670;5.624;2024-03-07T01:22:52;102713.97;;;12.59;54.39
63194;BME280;49289;51.670;5.624;2024-03-07T01:24:39;102710.88;;;12.58;54.47
63194;BME280;49289;51.670;5.624;2024-03-07T01:26:27;102709.84;;;12.48;54.60
63194;BME280;49289;51.670;5.624;2024-03-07T01:28:15;102685.35;;;12.32;54.72
63194;BME280;49289;51.670;5.624;2024-03-07T01:30:03;102677.79;;;12.26;54.70
63194;BME280;49289;51.670;5.624;2024-03-07T01:31:50;102701.48;;;12.48;54.23
63194;BME280;49289;51.670;5.624;2024-03-07T01:33:37;102699.71;;;12.44;54.41
63194;BME280;49289;51.670;5.624;2024-03-07T01:35:25;102684.03;;;12.31;54.37
63194;BME280;49289;51.670;5.624;2024-03-07T01:37:14;102678.78;;;12.24;54.33
63194;BME280;49289;51.670;5.624;2024-03-07T01:39:01;102698.18;;;12.39;54.26
63194;BME280;49289;51.670;5.624;2024-03-07T01:40:48;102699.97;;;12.31;54.63
63194;BME280;49289;51.670;5.624;2024-03-07T01:42:35;102671.05;;;12.20;54.48
63194;BME280;49289;51.670;5.624;2024-03-07T01:44:24;102671.48;;;12.24;54.33
63194;BME280;49289;51.670;5.624;2024-03-07T01:46:12;102672.38;;;12.20;54.62
63194;BME280;49289;51.670;5.624;2024-03-07T01:47:59;102670.44;;;12.13;54.86
63194;BME280;49289;51.670;5.624;2024-03-07T01:49:46;102688.55;;;12.27;54.93
63194;BME280;49289;51.670;5.624;2024-03-07T01:51:33;102668.55;;;12.07;55.05
63194;BME280;49289;51.670;5.624;2024-03-07T01:53:20;102694.44;;;12.14;55.26
63194;BME280;49289;51.670;5.624;2024-03-07T01:55:07;102674.20;;;12.05;55.09
63194;BME280;49289;51.670;5.624;2024-03-07T01:56:54;102688.50;;;12.25;54.78
63194;BME280;49289;51.670;5.624;2024-03-07T01:58:41;102666.41;;;12.20;54.74
63194;BME280;49289;51.670;5.624;2024-03-07T02:00:28;102682.59;;;12.27;55.03
63194;BME280;49289;51.670;5.624;2024-03-07T02:02:16;102686.31;;;12.27;54.91
63194;BME280;49289;51.670;5.624;2024-03-07T02:04:02;102656.72;;;12.08;55.00
63194;BME280;49289;51.670;5.624;2024-03-07T02:05:49;102655.41;;;12.06;54.90
63194;BME280;49289;51.670;5.624;2024-03-07T02:07:36;102678.71;;;12.10;54.93
63194;BME280;49289;51.670;5.624;2024-03-07T02:09:25;102654.52;;;11.81;55.11
63194;BME280;49289;51.670;5.624;2024-03-07T02:11:13;102654.42;;;11.71;55.43
63194;BME280;49289;51.670;5.624;2024-03-07T02:13:00;102669.05;;;11.94;55.30
63194;BME280;49289;51.670;5.624;2024-03-07T02:14:47;102674.32;;;11.92;55.58
63194;BME280;49289;51.670;5.624;2024-03-07T02:16:34;102669.48;;;11.90;55.87
63194;BME280;49289;51.670;5.624;2024-03-07T02:18:21;102647.70;;;11.87;55.61
63194;BME280;49289;51.670;5.624;2024-03-07T02:20:09;102669.80;;;12.07;55.37
63194;BME280;49289;51.670;5.624;2024-03-07T02:21:56;102669.56;;;12.06;55.42
63194;BME280;49289;51.670;5.624;2024-03-07T02:23:43;102671.13;;;12.00;55.54
63194;BME280;49289;51.670;5.624;2024-03-07T02:25:30;102669.52;;;11.90;55.60
63194;BME280;49289;51.670;5.624;2024-03-07T02:27:17;102669.34;;;11.98;55.42
63194;BME280;49289;51.670;5.624;2024-03-07T02:29:04;102658.47;;;11.77;55.78
63194;BME280;49289;51.670;5.624;2024-03-07T02:30:51;102645.10;;;11.90;55.43
63194;BME280;49289;51.670;5.624;2024-03-07T02:32:38;102667.30;;;12.04;55.47
63194;BME280;49289;51.670;5.624;2024-03-07T02:34:25;102669.44;;;12.05;55.53
63194;BME280;49289;51.670;5.624;2024-03-07T02:36:13;102663.19;;;12.05;55.71
63194;BME280;49289;51.670;5.624;2024-03-07T02:38:00;102663.18;;;12.06;55.76
63194;BME280;49289;51.670;5.624;2024-03-07T02:39:46;102663.59;;;11.98;55.96
63194;BME280;49289;51.670;5.624;2024-03-07T02:41:33;102663.52;;;12.00;56.06
63194;BME280;49289;51.670;5.624;2024-03-07T02:43:20;102641.73;;;11.96;55.94
63194;BME280;49289;51.670;5.624;2024-03-07T02:45:08;102660.16;;;12.03;56.14
63194;BME280;49289;51.670;5.624;2024-03-07T02:46:55;102636.06;;;11.79;56.44
63194;BME280;49289;51.670;5.624;2024-03-07T02:48:42;102658.47;;;12.07;56.21
63194;BME280;49289;51.670;5.624;2024-03-07T02:50:29;102634.83;;;11.96;56.16
63194;BME280;49289;51.670;5.624;2024-03-07T02:52:16;102656.83;;;12.05;56.24
63194;BME280;49289;51.670;5.624;2024-03-07T02:54:03;102657.56;;;11.99;56.45
63194;BME280;49289;51.670;5.624;2024-03-07T02:55:50;102654.00;;;12.04;56.53
63194;BME280;49289;51.670;5.624;2024-03-07T02:57:37;102655.39;;;12.01;56.53
63194;BME280;49289;51.670;5.624;2024-03-07T02:59:24;102623.48;;;11.88;56.60
63194;BME280;49289;51.670;5.624;2024-03-07T03:01:11;102637.59;;;11.93;56.76
63194;BME280;49289;51.670;5.624;2024-03-07T03:03:00;102654.02;;;12.11;56.74
63194;BME280;49289;51.670;5.624;2024-03-07T03:04:47;102651.09;;;12.13;56.75
63194;BME280;49289;51.670;5.624;2024-03-07T03:06:34;102633.83;;;12.04;56.59
63194;BME280;49289;51.670;5.624;2024-03-07T03:08:21;102651.45;;;12.08;56.49
63194;BME280;49289;51.670;5.624;2024-03-07T03:10:09;102649.98;;;12.07;57.05
63194;BME280;49289;51.670;5.624;2024-03-07T03:11:56;102644.11;;;12.11;57.00
63194;BME280;49289;51.670;5.624;2024-03-07T03:13:43;102648.25;;;12.14;56.87
63194;BME280;49289;51.670;5.624;2024-03-07T03:15:30;102640.83;;;12.09;57.05
63194;BME280;49289;51.670;5.624;2024-03-07T03:17:17;102643.71;;;12.13;57.03
63194;BME280;49289;51.670;5.624;2024-03-07T03:19:04;102643.42;;;12.13;56.98
63194;BME280;49289;51.670;5.624;2024-03-07T03:20:51;102623.98;;;12.05;57.02
63194;BME280;49289;51.670;5.624;2024-03-07T03:22:38;102640.80;;;12.18;56.96
63194;BME280;49289;51.670;5.624;2024-03-07T03:24:25;102622.04;;;12.04;56.90
63194;BME280;49289;51.670;5.624;2024-03-07T03:25:59;102620.92;;;12.02;56.84
63194;BME280;49289;51.670;5.624;2024-03-07T03:27:47;102618.64;;;11.95;56.74
63194;BME280;49289;51.670;5.624;2024-03-07T03:29:34;102636.86;;;11.98;57.03
63194;BME280;49289;51.670;5.624;2024-03-07T03:31:21;102637.13;;;11.98;57.08
63194;BME280;49289;51.670;5.624;2024-03-07T03:33:09;102635.03;;;12.06;56.96
63194;BME280;49289;51.670;5.624;2024-03-07T03:34:56;102636.13;;;12.05;56.99
63194;BME280;49289;51.670;5.624;2024-03-07T03:36:43;102611.12;;;11.97;56.83
63194;BME280;49289;51.670;5.624;2024-03-07T03:38:30;102614.41;;;12.01;56.59
63194;BME280;49289;51.670;5.624;2024-03-07T03:40:18;102629.63;;;11.99;56.57
63194;BME280;49289;51.670;5.624;2024-03-07T03:42:05;102630.55;;;11.93;56.85
63194;BME280;49289;51.670;5.624;2024-03-07T03:43:52;102624.02;;;11.90;56.78
63194;BME280;49289;51.670;5.624;2024-03-07T03:45:39;102627.00;;;11.92;57.05
63194;BME280;49289;51.670;5.624;2024-03-07T03:47:26;102621.88;;;11.90;57.05
63194;BME280;49289;51.670;5.624;2024-03-07T03:49:13;102622.31;;;11.97;56.92
63194;BME280;49289;51.670;5.624;2024-03-07T03:51:00;102618.48;;;11.92;56.84
63194;BME280;49289;51.670;5.624;2024-03-07T03:52:47;102596.81;;;11.80;56.99
63194;BME280;49289;51.670;5.624;2024-03-07T03:54:34;102617.24;;;12.00;56.82
63194;BME280;49289;51.670;5.624;2024-03-07T03:56:22;102594.56;;;11.88;56.63
63194;BME280;49289;51.670;5.624;2024-03-07T03:58:09;102613.98;;;11.98;56.69
63194;BME280;49289;51.670;5.624;2024-03-07T03:59:56;102615.42;;;11.89;56.77
63194;BME280;49289;51.670;5.624;2024-03-07T04:01:43;102615.33;;;11.86;57.16
63194;BME280;49289;51.670;5.624;2024-03-07T04:03:30;102615.79;;;11.86;57.30
63194;BME280;49289;51.670;5.624;2024-03-07T04:05:18;102603.90;;;11.92;57.28
63194;BME280;49289;51.670;5.624;2024-03-07T04:07:05;102609.25;;;11.95;57.27
63194;BME280;49289;51.670;5.624;2024-03-07T04:08:52;102608.78;;;11.87;57.49
63194;BME280;49289;51.670;5.624;2024-03-07T04:10:39;102611.41;;;11.86;57.69
63194;BME280;49289;51.670;5.624;2024-03-07T04:12:26;102616.29;;;11.80;57.86
63194;BME280;49289;51.670;5.624;2024-03-07T04:14:13;102612.81;;;11.74;58.22
63194;BME280;49289;51.670;5.624;2024-03-07T04:16:00;102614.06;;;11.71;58.29
63194;BME280;49289;51.670;5.624;2024-03-07T04:17:47;102614.16;;;11.76;58.17
63194;BME280;49289;51.670;5.624;2024-03-07T04:19:34;102611.16;;;11.76;58.08
63194;BME280;49289;51.670;5.624;2024-03-07T04:21:21;102588.14;;;11.74;57.90
63194;BME280;49289;51.670;5.624;2024-03-07T04:23:08;102613.81;;;11.85;57.76
63194;BME280;49289;51.670;5.624;2024-03-07T04:24:57;102587.36;;;11.59;58.06
63194;BME280;49289;51.670;5.624;2024-03-07T04:26:45;102586.81;;;11.47;58.37
63194;BME280;49289;51.670;5.624;2024-03-07T04:28:32;102588.78;;;11.53;58.63
63194;BME280;49289;51.670;5.624;2024-03-07T04:30:19;102611.08;;;11.66;58.51
63194;BME280;49289;51.670;5.624;2024-03-07T04:32:06;102610.42;;;11.55;58.92
63194;BME280;49289;51.670;5.624;2024-03-07T04:33:53;102596.91;;;11.54;58.61
63194;BME280;49289;51.670;5.624;2024-03-07T04:35:40;102615.63;;;11.50;59.17
63194;BME280;49289;51.670;5.624;2024-03-07T04:37:27;102592.07;;;11.56;58.71
63194;BME280;49289;51.670;5.624;2024-03-07T04:39:15;102597.39;;;11.67;58.71
63194;BME280;49289;51.670;5.624;2024-03-07T04:41:02;102611.32;;;11.81;58.54
63194;BME280;49289;51.670;5.624;2024-03-07T04:42:49;102588.06;;;11.45;58.62
63194;BME280;49289;51.670;5.624;2024-03-07T04:44:36;102589.27;;;11.62;58.67
63194;BME280;49289;51.670;5.624;2024-03-07T04:46:23;102612.61;;;11.80;58.36
63194;BME280;49289;51.670;5.624;2024-03-07T04:48:10;102609.02;;;11.83;58.11
63194;BME280;49289;51.670;5.624;2024-03-07T04:49:57;102588.34;;;11.64;57.97
63194;BME280;49289;51.670;5.624;2024-03-07T04:51:44;102606.92;;;11.78;58.11
63194;BME280;49289;51.670;5.624;2024-03-07T04:53:33;102589.39;;;11.74;57.68
63194;BME280;49289;51.670;5.624;2024-03-07T04:55:21;102586.16;;;11.76;57.34
63194;BME280;49289;51.670;5.624;2024-03-07T04:57:10;102589.13;;;11.74;57.12
63194;BME280;49289;51.670;5.624;2024-03-07T04:58:59;102584.11;;;11.59;57.51
63194;BME280;49289;51.670;5.624;2024-03-07T05:00:46;102571.72;;;11.54;57.50
63194;BME280;49289;51.670;5.624;2024-03-07T05:02:33;102581.88;;;11.51;57.78
63194;BME280;49289;51.670;5.624;2024-03-07T05:04:20;102587.33;;;11.58;57.61
63194;BME280;49289;51.670;5.624;2024-03-07T05:06:07;102612.72;;;11.68;57.84
63194;BME280;49289;51.670;5.624;2024-03-07T05:07:54;102615.87;;;11.77;57.52
63194;BME280;49289;51.670;5.624;2024-03-07T05:09:41;102613.60;;;11.73;57.38
63194;BME280;49289;51.670;5.624;2024-03-07T05:11:28;102614.69;;;11.70;57.63
63194;BME280;49289;51.670;5.624;2024-03-07T05:13:15;102613.27;;;11.69;57.82
63194;BME280;49289;51.670;5.624;2024-03-07T05:15:02;102610.38;;;11.76;57.68
63194;BME280;49289;51.670;5.624;2024-03-07T05:16:49;102591.35;;;11.51;57.69
63194;BME280;49289;51.670;5.624;2024-03-07T05:18:38;102588.22;;;11.55;57.64
63194;BME280;49289;51.670;5.624;2024-03-07T05:20:26;102593.55;;;11.61;57.28
63194;BME280;49289;51.670;5.624;2024-03-07T05:22:13;102615.52;;;11.57;57.56
63194;BME280;49289;51.670;5.624;2024-03-07T05:24:01;102610.55;;;11.61;57.53
63194;BME280;49289;51.670;5.624;2024-03-07T05:25:48;102611.70;;;11.61;57.49
63194;BME280;49289;51.670;5.624;2024-03-07T05:27:36;102596.32;;;11.43;57.81
63194;BME280;49289;51.670;5.624;2024-03-07T05:29:25;102594.84;;;11.49;57.38
63194;BME280;49289;51.670;5.624;2024-03-07T05:31:12;102619.41;;;11.59;57.69
63194;BME280;49289;51.670;5.624;2024-03-07T05:32:59;102595.00;;;11.31;57.66
63194;BME280;49289;51.670;5.624;2024-03-07T05:34:48;102598.12;;;11.39;57.93
63194;BME280;49289;51.670;5.624;2024-03-07T05:36:36;102594.18;;;11.29;58.36
63194;BME280;49289;51.670;5.624;2024-03-07T05:38:23;102617.03;;;11.44;58.37
63194;BME280;49289;51.670;5.624;2024-03-07T05:40:11;102607.09;;;11.31;58.47
63194;BME280;49289;51.670;5.624;2024-03-07T05:41:58;102614.72;;;11.21;58.77
63194;BME280;49289;51.670;5.624;2024-03-07T05:43:45;102590.08;;;11.02;58.76
63194;BME280;49289;51.670;5.624;2024-03-07T05:45:34;102595.36;;;11.27;58.75
63194;BME280;49289;51.670;5.624;2024-03-07T05:47:21;102580.96;;;11.17;58.49
63194;BME280;49289;51.670;5.624;2024-03-07T05:49:10;102590.33;;;11.28;58.50
63194;BME280;49289;51.670;5.624;2024-03-07T05:50:59;102588.03;;;11.37;58.24
63194;BME280;49289;51.670;5.624;2024-03-07T05:52:46;102614.66;;;11.41;58.39
63194;BME280;49289;51.670;5.624;2024-03-07T05:54:33;102591.06;;;11.33;58.12
63194;BME280;49289;51.670;5.624;2024-03-07T05:56:20;102590.83;;;11.47;57.73
63194;BME280;49289;51.670;5.624;2024-03-07T05:58:07;102611.08;;;11.55;57.69
63194;BME280;49289;51.670;5.624;2024-03-07T05:59:55;102588.72;;;11.40;57.67
63194;BME280;49289;51.670;5.624;2024-03-07T06:01:42;102587.51;;;11.42;57.53
63194;BME280;49289;51.670;5.624;2024-03-07T06:03:29;102609.63;;;11.54;57.48
63194;BME280;49289;51.670;5.624;2024-03-07T06:05:17;102586.22;;;11.43;57.33
63194;BME280;49289;51.670;5.624;2024-03-07T06:07:04;102610.82;;;11.51;57.11
63194;BME280;49289;51.670;5.624;2024-03-07T06:08:53;102587.02;;;11.37;57.34
63194;BME280;49289;51.670;5.624;2024-03-07T06:10:40;102587.23;;;11.25;57.66
63194;BME280;49289;51.670;5.624;2024-03-07T06:12:27;102614.01;;;11.40;57.71
63194;BME280;49289;51.670;5.624;2024-03-07T06:14:14;102576.20;;;11.22;57.73
63194;BME280;49289;51.670;5.624;2024-03-07T06:16:04;102590.00;;;11.31;57.84
63194;BME280;49289;51.670;5.624;2024-03-07T06:17:52;102591.73;;;11.18;57.92
63194;BME280;49289;51.670;5.624;2024-03-07T06:19:39;102609.72;;;11.17;58.45
63194;BME280;49289;51.670;5.624;2024-03-07T06:21:26;102588.48;;;11.10;58.55
63194;BME280;49289;51.670;5.624;2024-03-07T06:23:15;102592.33;;;11.14;58.55
63194;BME280;49289;51.670;5.624;2024-03-07T06:25:03;102593.14;;;11.10;58.53
63194;BME280;49289;51.670;5.624;2024-03-07T06:26:51;102587.36;;;11.08;58.43
63194;BME280;49289;51.670;5.624;2024-03-07T06:28:40;102587.89;;;11.14;58.66
63194;BME280;49289;51.670;5.624;2024-03-07T06:30:28;102585.89;;;11.26;58.38
63194;BME280;49289;51.670;5.624;2024-03-07T06:32:17;102588.16;;;11.26;58.29
63194;BME280;49289;51.670;5.624;2024-03-07T06:34:04;102604.95;;;11.12;58.84
63194;BME280;49289;51.670;5.624;2024-03-07T06:35:51;102607.95;;;11.27;58.82
63194;BME280;49289;51.670;5.624;2024-03-07T06:37:38;102606.59;;;11.19;58.82
63194;BME280;49289;51.670;5.624;2024-03-07T06:39:25;102604.90;;;11.32;58.65
63194;BME280;49289;51.670;5.624;2024-03-07T06:41:12;102604.94;;;11.06;59.29
63194;BME280;49289;51.670;5.624;2024-03-07T06:42:59;102611.70;;;11.31;58.70
63194;BME280;49289;51.670;5.624;2024-03-07T06:44:46;102611.14;;;11.31;58.81
63194;BME280;49289;51.670;5.624;2024-03-07T06:46:33;102583.77;;;11.05;58.92
63194;BME280;49289;51.670;5.624;2024-03-07T06:48:20;102587.57;;;11.27;58.70
63194;BME280;49289;51.670;5.624;2024-03-07T06:50:07;102589.70;;;11.34;58.41
63194;BME280;49289;51.670;5.624;2024-03-07T06:51:54;102608.84;;;11.37;58.51
63194;BME280;49289;51.670;5.624;2024-03-07T06:53:41;102610.06;;;11.42;58.47
63194;BME280;49289;51.670;5.624;2024-03-07T06:55:29;102585.83;;;11.32;58.38
63194;BME280;49289;51.670;5.624;2024-03-07T06:57:17;102588.12;;;11.47;58.30
63194;BME280;49289;51.670;5.624;2024-03-07T06:59:08;102586.95;;;11.41;58.06
63194;BME280;49289;51.670;5.624;2024-03-07T07:00:55;102608.67;;;11.63;57.92
63194;BME280;49289;51.670;5.624;2024-03-07T07:02:43;102585.73;;;11.30;58.22
63194;BME280;49289;51.670;5.624;2024-03-07T07:04:32;102582.87;;;11.47;58.25
63194;BME280;49289;51.670;5.624;2024-03-07T07:06:19;102607.13;;;11.49;58.19
63194;BME280;49289;51.670;5.624;2024-03-07T07:08:07;102587.02;;;11.30;58.77
63194;BME280;49289;51.670;5.624;2024-03-07T07:09:55;102606.28;;;11.61;58.65
63194;BME280;49289;51.670;5.624;2024-03-07T07:11:43;102582.02;;;11.49;58.54
63194;BME280;49289;51.670;5.624;2024-03-07T07:13:30;102601.25;;;11.82;58.06
63194;BME280;49289;51.670;5.624;2024-03-07T07:15:18;102578.03;;;11.40;58.66
63194;BME280;49289;51.670;5.624;2024-03-07T07:17:05;102600.66;;;11.53;58.90
63194;BME280;49289;51.670;5.624;2024-03-07T07:18:52;102585.77;;;11.36;59.00
63194;BME280;49289;51.670;5.624;2024-03-07T07:20:39;102574.69;;;11.45;58.71
63194;BME280;49289;51.670;5.624;2024-03-07T07:22:26;102579.44;;;11.05;59.20
63194;BME280;49289;51.670;5.624;2024-03-07T07:24:13;102579.84;;;11.20;59.34
63194;BME280;49289;51.670;5.624;2024-03-07T07:26:01;102572.84;;;11.27;59.30
63194;BME280;49289;51.670;5.624;2024-03-07T07:27:50;102570.67;;;11.72;58.76
63194;BME280;49289;51.670;5.624;2024-03-07T07:29:40;102575.61;;;11.37;59.21
63194;BME280;49289;51.670;5.624;2024-03-07T07:31:29;102569.20;;;11.61;58.89
63194;BME280;49289;51.670;5.624;2024-03-07T07:33:18;102574.73;;;11.79;58.32
63194;BME280;49289;51.670;5.624;2024-03-07T07:35:06;102573.05;;;11.70;58.39
63194;BME280;49289;51.670;5.624;2024-03-07T07:36:53;102578.54;;;11.99;57.75
63194;BME280;49289;51.670;5.624;2024-03-07T07:38:40;102596.48;;;11.84;57.66
63194;BME280;49289;51.670;5.624;2024-03-07T07:40:27;102574.34;;;11.51;58.73
63194;BME280;49289;51.670;5.624;2024-03-07T07:42:16;102572.36;;;10.97;60.35
63194;BME280;49289;51.670;5.624;2024-03-07T07:44:04;102572.42;;;11.28;59.50
63194;BME280;49289;51.670;5.624;2024-03-07T07:45:51;102570.03;;;11.02;59.24
63194;BME280;49289;51.670;5.624;2024-03-07T07:47:40;102570.58;;;11.32;59.75
63194;BME280;49289;51.670;5.624;2024-03-07T07:49:27;102571.33;;;11.38;59.16
63194;BME280;49289;51.670;5.624;2024-03-07T07:51:15;102569.44;;;11.65;58.71
63194;BME280;49289;51.670;5.624;2024-03-07T07:53:03;102571.42;;;11.75;58.50
63194;BME280;49289;51.670;5.624;2024-03-07T07:54:53;102563.51;;;11.34;59.06
63194;BME280;49289;51.670;5.624;2024-03-07T07:56:40;102590.95;;;11.54;58.98
63194;BME280;49289;51.670;5.624;2024-03-07T07:58:28;102573.72;;;11.07;60.38
63194;BME280;49289;51.670;5.624;2024-03-07T08:00:19;102574.17;;;10.79;60.64
63194;BME280;49289;51.670;5.624;2024-03-07T08:02:07;102576.72;;;11.47;59.55
63194;BME280;49289;51.670;5.624;2024-03-07T08:03:55;102575.44;;;11.23;59.17
63194;BME280;49289;51.670;5.624;2024-03-07T08:05:42;102576.70;;;11.83;58.19
63194;BME280;49289;51.670;5.624;2024-03-07T08:07:29;102575.97;;;11.69;58.11
63194;BME280;49289;51.670;5.624;2024-03-07T08:09:16;102593.96;;;12.17;57.79
63194;BME280;49289;51.670;5.624;2024-03-07T08:11:04;102573.05;;;11.86;57.33
63194;BME280;49289;51.670;5.624;2024-03-07T08:12:53;102573.89;;;11.75;57.92
63194;BME280;49289;51.670;5.624;2024-03-07T08:14:40;102600.39;;;11.88;57.58
63194;BME280;49289;51.670;5.624;2024-03-07T08:16:27;102594.75;;;11.11;59.26
63194;BME280;49289;51.670;5.624;2024-03-07T08:18:14;102577.74;;;11.39;59.17
63194;BME280;49289;51.670;5.624;2024-03-07T08:20:01;102579.13;;;12.00;57.46
63194;BME280;49289;51.670;5.624;2024-03-07T08:21:50;102576.55;;;11.09;58.65
63194;BME280;49289;51.670;5.624;2024-03-07T08:23:38;102576.83;;;11.70;57.96
63194;BME280;49289;51.670;5.624;2024-03-07T08:25:27;102575.00;;;11.79;57.73
63194;BME280;49289;51.670;5.624;2024-03-07T08:27:15;102572.09;;;11.41;57.62
63194;BME280;49289;51.670;5.624;2024-03-07T08:29:03;102567.62;;;12.07;56.92
63194;BME280;49289;51.670;5.624;2024-03-07T08:30:50;102595.56;;;12.19;56.31
63194;BME280;49289;51.670;5.624;2024-03-07T08:32:39;102562.36;;;12.32;56.50
63194;BME280;49289;51.670;5.624;2024-03-07T08:34:26;102561.87;;;12.38;55.95
63194;BME280;49289;51.670;5.624;2024-03-07T08:36:13;102586.59;;;12.69;55.51
63194;BME280;49289;51.670;5.624;2024-03-07T08:38:01;102572.30;;;11.66;57.20
63194;BME280;49289;51.670;5.624;2024-03-07T08:39:50;102581.23;;;11.67;57.03
63194;BME280;49289;51.670;5.624;2024-03-07T08:41:37;102599.11;;;11.48;56.67
63194;BME280;49289;51.670;5.624;2024-03-07T08:43:24;102573.84;;;12.06;56.64
63194;BME280;49289;51.670;5.624;2024-03-07T08:45:13;102567.84;;;12.37;55.59
63194;BME280;49289;51.670;5.624;2024-03-07T08:47:00;102595.66;;;12.30;56.09
63194;BME280;49289;51.670;5.624;2024-03-07T08:48:48;102559.95;;;12.42;55.09
63194;BME280;49289;51.670;5.624;2024-03-07T08:50:37;102564.14;;;12.39;55.13
63194;BME280;49289;51.670;5.624;2024-03-07T08:52:25;102565.80;;;12.68;54.93
63194;BME280;49289;51.670;5.624;2024-03-07T08:54:12;102590.72;;;12.11;55.95
63194;BME280;49289;51.670;5.624;2024-03-07T08:56:00;102559.48;;;12.21;55.62
63194;BME280;49289;51.670;5.624;2024-03-07T08:57:49;102562.30;;;12.25;56.26
63194;BME280;49289;51.670;5.624;2024-03-07T08:59:37;102557.73;;;12.68;54.81
63194;BME280;49289;51.670;5.624;2024-03-07T09:01:25;102559.68;;;13.19;54.36
63194;BME280;49289;51.670;5.624;2024-03-07T09:03:12;102576.47;;;12.97;53.59
63194;BME280;49289;51.670;5.624;2024-03-07T09:05:00;102553.71;;;12.98;53.79
63194;BME280;49289;51.670;5.624;2024-03-07T09:06:47;102547.07;;;13.12;53.21
63194;BME280;49289;51.670;5.624;2024-03-07T09:08:34;102569.59;;;12.61;54.46
63194;BME280;49289;51.670;5.624;2024-03-07T09:10:21;102568.34;;;12.67;54.60
63194;BME280;49289;51.670;5.624;2024-03-07T09:12:08;102552.23;;;13.55;53.28
63194;BME280;49289;51.670;5.624;2024-03-07T09:13:55;102560.55;;;13.01;53.36
63194;BME280;49289;51.670;5.624;2024-03-07T09:15:42;102541.00;;;13.13;53.58
63194;BME280;49289;51.670;5.624;2024-03-07T09:17:29;102561.59;;;13.90;52.21
63194;BME280;49289;51.670;5.624;2024-03-07T09:19:16;102564.55;;;14.13;51.77
63194;BME280;49289;51.670;5.624;2024-03-07T09:21:05;102539.44;;;13.41;50.13